sensor_id;sensor_type;location;lat;lon;timestamp;pressure;altitude;pressure_sealevel;temperature;humidity
16595;BME280;8410;52.532;13.336;2023-05-13T00:01:02;101552.97;;;18.17;47.71
16595;BME280;8410;52.532;13.336;2023-05-13T00:03:30;101548.59;;;18.19;48.30
16595;BME280;8410;52.532;13.336;2023-05-13T00:05:58;101553.03;;;18.01;47.93
16595;BME280;8410;52.532;13.336;2023-05-13T00:08:25;101554.69;;;18.21;47.82
16595;BME280;8410;52.532;13.336;2023-05-13T00:10:53;101545.66;;;18.66;47.12
16595;BME280;8410;52.532;13.336;2023-05-13T00:13:20;101549.44;;;18.28;47.75
16595;BME280;8410;52.532;13.336;2023-05-13T00:15:49;101555.75;;;17.83;49.01
16595;BME280;8410;52.532;13.336;2023-05-13T00:18:17;101556.34;;;18.33;47.34
16595;BME280;8410;52.532;13.336;2023-05-13T00:20:44;101559.16;;;17.96;48.13
16595;BME280;8410;52.532;13.336;2023-05-13T00:23:12;101554.75;;;18.04;48.16
16595;BME280;8410;52.532;13.336;2023-05-13T00:25:39;101559.22;;;17.83;47.93
16595;BME280;8410;52.532;13.336;2023-05-13T00:28:09;101554.88;;;17.82;48.64
16595;BME280;8410;52.532;13.336;2023-05-13T00:30:39;101555.81;;;17.57;48.67
16595;BME280;8410;52.532;13.336;2023-05-13T00:33:08;101562.75;;;17.55;49.65
16595;BME280;8410;52.532;13.336;2023-05-13T00:35:36;101558.25;;;18.03;47.96
16595;BME280;8410;52.532;13.336;2023-05-13T00:38:03;101563.56;;;17.81;48.64
16595;BME280;8410;52.532;13.336;2023-05-13T00:40:33;101563.53;;;17.88;48.33
16595;BME280;8410;52.532;13.336;2023-05-13T00:43:03;101569.69;;;17.60;49.29
16595;BME280;8410;52.532;13.336;2023-05-13T00:45:31;101567.16;;;17.44;49.20
16595;BME280;8410;52.532;13.336;2023-05-13T00:47:59;101572.31;;;17.53;49.30
16595;BME280;8410;52.532;13.336;2023-05-13T00:50:28;101573.97;;;17.78;49.52
16595;BME280;8410;52.532;13.336;2023-05-13T00:52:56;101570.53;;;17.64;49.70
16595;BME280;8410;52.532;13.336;2023-05-13T00:55:23;101578.44;;;17.46;49.74
16595;BME280;8410;52.532;13.336;2023-05-13T00:57:51;101579.34;;;17.22;50.46
16595;BME280;8410;52.532;13.336;2023-05-13T01:00:19;101581.91;;;17.35;50.50
16595;BME280;8410;52.532;13.336;2023-05-13T01:02:53;101580.13;;;17.45;49.64
16595;BME280;8410;52.532;13.336;2023-05-13T01:05:27;101574.03;;;17.60;50.37
16595;BME280;8410;52.532;13.336;2023-05-13T01:08:03;101585.38;;;17.33;50.53
16595;BME280;8410;52.532;13.336;2023-05-13T01:10:37;101580.91;;;17.76;49.39
16595;BME280;8410;52.532;13.336;2023-05-13T01:13:11;101580.22;;;17.04;50.52
16595;BME280;8410;52.532;13.336;2023-05-13T01:15:50;101587.19;;;16.89;50.58
16595;BME280;8410;52.532;13.336;2023-05-13T01:18:24;101587.97;;;17.44;49.63
16595;BME280;8410;52.532;13.336;2023-05-13T01:20:55;101591.41;;;17.52;50.27
16595;BME280;8410;52.532;13.336;2023-05-13T01:23:24;101590.53;;;17.62;49.92
16595;BME280;8410;52.532;13.336;2023-05-13T01:25:51;101586.13;;;17.73;49.08
16595;BME280;8410;52.532;13.336;2023-05-13T01:28:19;101604.50;;;17.09;50.27
16595;BME280;8410;52.532;13.336;2023-05-13T01:30:47;101607.91;;;17.45;50.42
16595;BME280;8410;52.532;13.336;2023-05-13T01:33:15;101599.25;;;17.32;49.95
16595;BME280;8410;52.532;13.336;2023-05-13T01:35:44;101593.94;;;17.87;48.84
16595;BME280;8410;52.532;13.336;2023-05-13T01:38:13;101596.69;;;16.96;50.11
16595;BME280;8410;52.532;13.336;2023-05-13T01:40:42;101610.56;;;17.05;50.87
16595;BME280;8410;52.532;13.336;2023-05-13T01:43:10;101607.84;;;17.69;49.36
16595;BME280;8410;52.532;13.336;2023-05-13T01:45:41;101614.88;;;17.38;50.31
16595;BME280;8410;52.532;13.336;2023-05-13T01:48:08;101612.31;;;17.24;50.17
16595;BME280;8410;52.532;13.336;2023-05-13T01:50:35;101615.69;;;17.60;49.35
16595;BME280;8410;52.532;13.336;2023-05-13T01:53:03;101615.75;;;16.80;51.42
16595;BME280;8410;52.532;13.336;2023-05-13T01:55:30;101607.09;;;17.27;50.61
16595;BME280;8410;52.532;13.336;2023-05-13T01:57:59;101622.72;;;16.87;51.46
16595;BME280;8410;52.532;13.336;2023-05-13T02:00:26;101612.25;;;16.69;52.03
16595;BME280;8410;52.532;13.336;2023-05-13T02:02:54;101614.88;;;17.35;50.08
16595;BME280;8410;52.532;13.336;2023-05-13T02:05:21;101610.56;;;16.88;51.05
16595;BME280;8410;52.532;13.336;2023-05-13T02:07:49;101614.03;;;17.10;50.73
16595;BME280;8410;52.532;13.336;2023-05-13T02:10:16;101614.00;;;16.74;50.83
16595;BME280;8410;52.532;13.336;2023-05-13T02:12:44;101620.06;;;17.49;49.58
16595;BME280;8410;52.532;13.336;2023-05-13T02:15:13;101614.00;;;17.40;50.26
16595;BME280;8410;52.532;13.336;2023-05-13T02:17:40;101615.75;;;17.32;50.40
16595;BME280;8410;52.532;13.336;2023-05-13T02:20:09;101615.78;;;17.11;50.35
16595;BME280;8410;52.532;13.336;2023-05-13T02:22:36;101620.97;;;17.14;50.52
16595;BME280;8410;52.532;13.336;2023-05-13T02:25:05;101620.97;;;17.05;50.74
16595;BME280;8410;52.532;13.336;2023-05-13T02:27:32;101614.88;;;16.66;52.38
16595;BME280;8410;52.532;13.336;2023-05-13T02:29:59;101620.91;;;16.65;52.49
16595;BME280;8410;52.532;13.336;2023-05-13T02:32:28;101619.25;;;16.97;50.60
16595;BME280;8410;52.532;13.336;2023-05-13T02:34:56;101617.44;;;16.57;51.69
16595;BME280;8410;52.532;13.336;2023-05-13T02:37:23;101619.25;;;16.90;50.92
16595;BME280;8410;52.532;13.336;2023-05-13T02:39:51;101618.38;;;16.91;51.05
16595;BME280;8410;52.532;13.336;2023-05-13T02:42:18;101619.22;;;16.81;51.64
16595;BME280;8410;52.532;13.336;2023-05-13T02:44:46;101623.53;;;17.46;49.68
16595;BME280;8410;52.532;13.336;2023-05-13T02:47:13;101626.19;;;16.92;51.88
16595;BME280;8410;52.532;13.336;2023-05-13T02:49:42;101629.63;;;16.94;51.43
16595;BME280;8410;52.532;13.336;2023-05-13T02:52:10;101629.59;;;16.73;52.00
16595;BME280;8410;52.532;13.336;2023-05-13T02:54:37;101627.81;;;16.41;52.11
16595;BME280;8410;52.532;13.336;2023-05-13T02:57:04;101625.31;;;17.06;51.47
16595;BME280;8410;52.532;13.336;2023-05-13T02:59:32;101621.00;;;17.11;50.94
16595;BME280;8410;52.532;13.336;2023-05-13T03:01:59;101631.38;;;17.35;50.88
16595;BME280;8410;52.532;13.336;2023-05-13T03:04:27;101627.91;;;16.96;51.53
16595;BME280;8410;52.532;13.336;2023-05-13T03:06:56;101627.03;;;17.36;50.38
16595;BME280;8410;52.532;13.336;2023-05-13T03:09:23;101629.63;;;16.76;51.48
16595;BME280;8410;52.532;13.336;2023-05-13T03:11:51;101629.63;;;17.25;50.59
16595;BME280;8410;52.532;13.336;2023-05-13T03:14:18;101646.84;;;16.40;52.41
16595;BME280;8410;52.532;13.336;2023-05-13T03:16:46;101638.25;;;16.75;51.61
16595;BME280;8410;52.532;13.336;2023-05-13T03:19:13;101634.78;;;16.64;50.83
16595;BME280;8410;52.532;13.336;2023-05-13T03:21:41;101640.84;;;16.55;51.40
16595;BME280;8410;52.532;13.336;2023-05-13T03:24:09;101642.53;;;16.42;51.80
16595;BME280;8410;52.532;13.336;2023-05-13T03:26:37;101640.84;;;16.55;51.40
16595;BME280;8410;52.532;13.336;2023-05-13T03:29:04;101639.97;;;16.70;50.85
16595;BME280;8410;52.532;13.336;2023-05-13T03:31:32;101641.75;;;16.74;50.98
16595;BME280;8410;52.532;13.336;2023-05-13T03:33:59;101643.41;;;16.50;51.33
16595;BME280;8410;52.532;13.336;2023-05-13T03:36:26;101645.25;;;16.82;50.31
16595;BME280;8410;52.532;13.336;2023-05-13T03:38:54;101638.25;;;16.72;51.23
16595;BME280;8410;52.532;13.336;2023-05-13T03:41:22;101646.91;;;16.65;50.49
16595;BME280;8410;52.532;13.336;2023-05-13T03:43:50;101643.50;;;17.07;49.77
16595;BME280;8410;52.532;13.336;2023-05-13T03:46:17;101644.38;;;16.95;50.01
16595;BME280;8410;52.532;13.336;2023-05-13T03:48:45;101641.78;;;17.08;50.45
16595;BME280;8410;52.532;13.336;2023-05-13T03:51:12;101643.47;;;17.42;51.88
16595;BME280;8410;52.532;13.336;2023-05-13T03:53:40;101646.91;;;17.81;51.09
16595;BME280;8410;52.532;13.336;2023-05-13T03:56:07;101656.50;;;17.36;50.20
16595;BME280;8410;52.532;13.336;2023-05-13T03:58:37;101650.38;;;16.70;50.59
16595;BME280;8410;52.532;13.336;2023-05-13T04:01:05;101651.25;;;17.79;50.03
16595;BME280;8410;52.532;13.336;2023-05-13T04:03:33;101655.34;;;18.43;48.09
16595;BME280;8410;52.532;13.336;2023-05-13T04:06:00;101652.63;;;18.57;48.35
16595;BME280;8410;52.532;13.336;2023-05-13T04:08:28;101662.53;;;17.78;47.79
16595;BME280;8410;52.532;13.336;2023-05-13T04:10:56;101668.34;;;18.48;46.79
16595;BME280;8410;52.532;13.336;2023-05-13T04:13:23;101666.22;;;19.08;45.77
16595;BME280;8410;52.532;13.336;2023-05-13T04:15:52;101667.47;;;19.63;45.49
16595;BME280;8410;52.532;13.336;2023-05-13T04:18:20;101657.72;;;21.09;42.94
16595;BME280;8410;52.532;13.336;2023-05-13T04:20:48;101655.78;;;21.70;41.60
16595;BME280;8410;52.532;13.336;2023-05-13T04:23:15;101667.13;;;21.21;41.39
16595;BME280;8410;52.532;13.336;2023-05-13T04:25:49;101668.84;;;20.69;42.20
16595;BME280;8410;52.532;13.336;2023-05-13T04:28:16;101680.53;;;19.61;44.15
16595;BME280;8410;52.532;13.336;2023-05-13T04:30:44;101684.47;;;19.14;44.64
16595;BME280;8410;52.532;13.336;2023-05-13T04:33:12;101684.00;;;19.67;45.06
16595;BME280;8410;52.532;13.336;2023-05-13T04:35:40;101689.19;;;19.70;44.09
16595;BME280;8410;52.532;13.336;2023-05-13T04:38:07;101690.19;;;18.19;46.71
16595;BME280;8410;52.532;13.336;2023-05-13T04:40:35;101685.25;;;19.21;45.16
16595;BME280;8410;52.532;13.336;2023-05-13T04:43:02;101690.13;;;19.63;44.64
16595;BME280;8410;52.532;13.336;2023-05-13T04:45:30;101679.97;;;20.17;43.87
16595;BME280;8410;52.532;13.336;2023-05-13T04:47:57;101697.13;;;19.56;44.90
16595;BME280;8410;52.532;13.336;2023-05-13T04:50:26;101694.22;;;19.88;44.56
16595;BME280;8410;52.532;13.336;2023-05-13T04:52:54;101697.91;;;18.48;45.93
16595;BME280;8410;52.532;13.336;2023-05-13T04:55:22;101696.53;;;19.28;45.98
16595;BME280;8410;52.532;13.336;2023-05-13T04:57:52;101698.25;;;19.30;45.62
16595;BME280;8410;52.532;13.336;2023-05-13T05:00:20;101699.91;;;19.39;44.56
16595;BME280;8410;52.532;13.336;2023-05-13T05:02:48;101704.69;;;18.83;44.97
16595;BME280;8410;52.532;13.336;2023-05-13T05:05:15;101710.59;;;19.08;45.53
16595;BME280;8410;52.532;13.336;2023-05-13T05:07:45;101710.06;;;18.48;45.65
16595;BME280;8410;52.532;13.336;2023-05-13T05:10:12;101706.59;;;18.47;45.83
16595;BME280;8410;52.532;13.336;2023-05-13T05:12:40;101716.25;;;18.19;47.53
16595;BME280;8410;52.532;13.336;2023-05-13T05:15:09;101711.84;;;18.38;46.08
16595;BME280;8410;52.532;13.336;2023-05-13T05:17:41;101724.06;;;18.24;46.62
16595;BME280;8410;52.532;13.336;2023-05-13T05:20:09;101720.31;;;18.86;45.79
16595;BME280;8410;52.532;13.336;2023-05-13T05:22:37;101715.94;;;19.93;44.71
16595;BME280;8410;52.532;13.336;2023-05-13T05:25:09;101709.91;;;18.82;45.39
16595;BME280;8410;52.532;13.336;2023-05-13T05:27:37;101710.41;;;20.90;41.29
16595;BME280;8410;52.532;13.336;2023-05-13T05:30:05;101697.81;;;22.54;39.51
16595;BME280;8410;52.532;13.336;2023-05-13T05:32:33;101691.28;;;23.79;36.51
16595;BME280;8410;52.532;13.336;2023-05-13T05:35:01;101701.78;;;22.31;39.31
16595;BME280;8410;52.532;13.336;2023-05-13T05:37:29;101691.94;;;25.03;36.06
16595;BME280;8410;52.532;13.336;2023-05-13T05:39:57;101715.25;;;22.56;37.52
16595;BME280;8410;52.532;13.336;2023-05-13T05:42:25;101717.19;;;21.02;39.61
16595;BME280;8410;52.532;13.336;2023-05-13T05:44:53;101713.88;;;20.89;40.14
16595;BME280;8410;52.532;13.336;2023-05-13T05:47:20;101712.97;;;21.94;39.34
16595;BME280;8410;52.532;13.336;2023-05-13T05:49:48;101707.84;;;22.35;38.56
16595;BME280;8410;52.532;13.336;2023-05-13T05:52:15;101717.69;;;22.64;37.96
16595;BME280;8410;52.532;13.336;2023-05-13T05:54:43;101710.81;;;22.58;38.19
16595;BME280;8410;52.532;13.336;2023-05-13T05:57:10;101730.81;;;19.88;40.99
16595;BME280;8410;52.532;13.336;2023-05-13T05:59:39;101705.41;;;23.05;36.63
16595;BME280;8410;52.532;13.336;2023-05-13T06:02:07;101697.84;;;24.25;35.82
16595;BME280;8410;52.532;13.336;2023-05-13T06:04:34;101715.00;;;23.07;37.01
16595;BME280;8410;52.532;13.336;2023-05-13T06:07:02;101707.84;;;22.75;37.72
16595;BME280;8410;52.532;13.336;2023-05-13T06:09:29;101718.44;;;22.30;38.09
16595;BME280;8410;52.532;13.336;2023-05-13T06:11:57;101714.47;;;22.90;37.69
16595;BME280;8410;52.532;13.336;2023-05-13T06:14:24;101721.06;;;22.71;38.03
16595;BME280;8410;52.532;13.336;2023-05-13T06:16:53;101723.31;;;22.03;38.39
16595;BME280;8410;52.532;13.336;2023-05-13T06:19:21;101728.44;;;21.07;39.37
16595;BME280;8410;52.532;13.336;2023-05-13T06:21:48;101739.19;;;20.21;40.43
16595;BME280;8410;52.532;13.336;2023-05-13T06:24:16;101733.22;;;20.07;41.42
16595;BME280;8410;52.532;13.336;2023-05-13T06:26:43;101730.72;;;21.29;39.87
16595;BME280;8410;52.532;13.336;2023-05-13T06:29:11;101727.41;;;21.72;39.10
16595;BME280;8410;52.532;13.336;2023-05-13T06:31:38;101724.84;;;20.54;40.00
16595;BME280;8410;52.532;13.336;2023-05-13T06:34:07;101727.06;;;21.41;38.46
16595;BME280;8410;52.532;13.336;2023-05-13T06:36:41;101735.47;;;20.40;39.55
16595;BME280;8410;52.532;13.336;2023-05-13T06:39:10;101724.88;;;20.49;39.46
16595;BME280;8410;52.532;13.336;2023-05-13T06:41:38;101737.91;;;19.77;40.95
16595;BME280;8410;52.532;13.336;2023-05-13T06:44:05;101736.97;;;19.82;41.14
16595;BME280;8410;52.532;13.336;2023-05-13T06:46:33;101734.56;;;19.59;41.48
16595;BME280;8410;52.532;13.336;2023-05-13T06:49:01;101730.88;;;19.82;40.87
16595;BME280;8410;52.532;13.336;2023-05-13T06:51:30;101727.91;;;20.14;40.45
16595;BME280;8410;52.532;13.336;2023-05-13T06:53:59;101727.03;;;20.17;39.38
16595;BME280;8410;52.532;13.336;2023-05-13T06:56:27;101725.75;;;19.73;40.69
16595;BME280;8410;52.532;13.336;2023-05-13T06:58:55;101720.06;;;20.16;40.82
16595;BME280;8410;52.532;13.336;2023-05-13T07:01:23;101723.59;;;19.16;41.20
16595;BME280;8410;52.532;13.336;2023-05-13T07:03:50;101726.97;;;19.29;41.51
16595;BME280;8410;52.532;13.336;2023-05-13T07:06:18;101716.84;;;19.92;41.54
16595;BME280;8410;52.532;13.336;2023-05-13T07:08:46;101722.22;;;19.77;40.65
16595;BME280;8410;52.532;13.336;2023-05-13T07:11:14;101726.97;;;19.30;41.56
16595;BME280;8410;52.532;13.336;2023-05-13T07:13:42;101726.47;;;18.78;41.09
16595;BME280;8410;52.532;13.336;2023-05-13T07:16:12;101729.94;;;18.70;40.85
16595;BME280;8410;52.532;13.336;2023-05-13T07:18:39;101714.25;;;18.73;41.41
16595;BME280;8410;52.532;13.336;2023-05-13T07:21:07;101707.22;;;18.94;40.84
16595;BME280;8410;52.532;13.336;2023-05-13T07:23:35;101722.78;;;19.09;41.09
16595;BME280;8410;52.532;13.336;2023-05-13T07:26:03;101710.38;;;19.34;41.45
16595;BME280;8410;52.532;13.336;2023-05-13T07:28:31;101710.13;;;19.67;41.55
16595;BME280;8410;52.532;13.336;2023-05-13T07:30:58;101706.34;;;19.97;40.57
16595;BME280;8410;52.532;13.336;2023-05-13T07:33:26;101720.72;;;19.51;38.76
16595;BME280;8410;52.532;13.336;2023-05-13T07:35:54;101704.28;;;19.37;38.77
16595;BME280;8410;52.532;13.336;2023-05-13T07:38:21;101706.75;;;19.52;38.74
16595;BME280;8410;52.532;13.336;2023-05-13T07:40:49;101701.75;;;19.26;38.51
16595;BME280;8410;52.532;13.336;2023-05-13T07:43:18;101707.34;;;19.85;38.13
16595;BME280;8410;52.532;13.336;2023-05-13T07:45:49;101678.16;;;20.22;37.19
16595;BME280;8410;52.532;13.336;2023-05-13T07:48:17;101692.66;;;19.73;37.65
16595;BME280;8410;52.532;13.336;2023-05-13T07:50:45;101690.88;;;19.77;38.28
16595;BME280;8410;52.532;13.336;2023-05-13T07:53:12;101676.41;;;20.24;37.17
16595;BME280;8410;52.532;13.336;2023-05-13T07:55:40;101684.47;;;20.04;37.51
16595;BME280;8410;52.532;13.336;2023-05-13T07:58:08;101695.91;;;19.95;36.62
16595;BME280;8410;52.532;13.336;2023-05-13T08:00:37;101693.53;;;19.72;36.95
16595;BME280;8410;52.532;13.336;2023-05-13T08:03:04;101676.44;;;20.19;36.51
16595;BME280;8410;52.532;13.336;2023-05-13T08:05:32;101678.47;;;20.67;36.39
16595;BME280;8410;52.532;13.336;2023-05-13T08:07:59;101684.53;;;19.99;36.17
16595;BME280;8410;52.532;13.336;2023-05-13T08:10:28;101670.94;;;19.65;36.81
16595;BME280;8410;52.532;13.336;2023-05-13T08:12:55;101678.72;;;20.44;36.77
16595;BME280;8410;52.532;13.336;2023-05-13T08:15:24;101670.34;;;20.19;36.98
16595;BME280;8410;52.532;13.336;2023-05-13T08:17:53;101688.97;;;19.91;37.46
16595;BME280;8410;52.532;13.336;2023-05-13T08:20:21;101678.72;;;20.45;37.32
16595;BME280;8410;52.532;13.336;2023-05-13T08:22:55;101693.88;;;20.19;37.36
16595;BME280;8410;52.532;13.336;2023-05-13T08:25:23;101697.81;;;19.78;38.19
16595;BME280;8410;52.532;13.336;2023-05-13T08:27:51;101687.72;;;20.24;37.94
16595;BME280;8410;52.532;13.336;2023-05-13T08:30:18;101677.13;;;20.35;38.29
16595;BME280;8410;52.532;13.336;2023-05-13T08:32:46;101667.38;;;21.05;38.01
16595;BME280;8410;52.532;13.336;2023-05-13T08:35:15;101683.09;;;21.07;38.04
16595;BME280;8410;52.532;13.336;2023-05-13T08:37:42;101686.22;;;21.29;37.89
16595;BME280;8410;52.532;13.336;2023-05-13T08:40:10;101687.53;;;20.40;38.53
16595;BME280;8410;52.532;13.336;2023-05-13T08:42:38;101673.66;;;20.97;37.79
16595;BME280;8410;52.532;13.336;2023-05-13T08:45:07;101683.34;;;20.26;38.83
16595;BME280;8410;52.532;13.336;2023-05-13T08:47:42;101689.50;;;20.86;38.61
16595;BME280;8410;52.532;13.336;2023-05-13T08:50:11;101689.06;;;21.15;37.96
16595;BME280;8410;52.532;13.336;2023-05-13T08:52:42;101688.19;;;21.14;38.10
16595;BME280;8410;52.532;13.336;2023-05-13T08:55:09;101694.84;;;21.84;36.73
16595;BME280;8410;52.532;13.336;2023-05-13T08:57:37;101699.94;;;20.90;37.69
16595;BME280;8410;52.532;13.336;2023-05-13T09:00:06;101695.78;;;20.76;38.03
16595;BME280;8410;52.532;13.336;2023-05-13T09:02:33;101688.19;;;20.53;38.88
16595;BME280;8410;52.532;13.336;2023-05-13T09:05:04;101681.94;;;20.67;39.10
16595;BME280;8410;52.532;13.336;2023-05-13T09:07:32;101679.59;;;20.44;39.67
16595;BME280;8410;52.532;13.336;2023-05-13T09:10:01;101687.63;;;20.31;39.32
16595;BME280;8410;52.532;13.336;2023-05-13T09:12:45;101680.41;;;21.10;38.73
16595;BME280;8410;52.532;13.336;2023-05-13T09:15:14;101672.16;;;21.33;38.69
16595;BME280;8410;52.532;13.336;2023-05-13T09:17:43;101666.34;;;21.67;38.17
16595;BME280;8410;52.532;13.336;2023-05-13T09:20:12;101676.31;;;21.48;38.23
16595;BME280;8410;52.532;13.336;2023-05-13T09:22:43;101660.03;;;21.77;37.58
16595;BME280;8410;52.532;13.336;2023-05-13T09:25:13;101677.09;;;20.99;37.04
16595;BME280;8410;52.532;13.336;2023-05-13T09:27:44;101672.22;;;20.74;37.74
16595;BME280;8410;52.532;13.336;2023-05-13T09:30:12;101651.47;;;21.67;36.92
16595;BME280;8410;52.532;13.336;2023-05-13T09:32:41;101665.47;;;21.66;37.45
16595;BME280;8410;52.532;13.336;2023-05-13T09:35:11;101652.66;;;21.96;36.44
16595;BME280;8410;52.532;13.336;2023-05-13T09:37:45;101663.34;;;21.37;36.36
16595;BME280;8410;52.532;13.336;2023-05-13T09:40:16;101655.13;;;21.60;35.77
16595;BME280;8410;52.532;13.336;2023-05-13T09:42:44;101654.84;;;22.19;36.66
16595;BME280;8410;52.532;13.336;2023-05-13T09:45:14;101658.00;;;22.35;35.62
16595;BME280;8410;52.532;13.336;2023-05-13T09:47:42;101674.94;;;21.25;35.80
16595;BME280;8410;52.532;13.336;2023-05-13T09:50:10;101666.41;;;21.11;36.46
16595;BME280;8410;52.532;13.336;2023-05-13T09:52:38;101654.91;;;21.20;36.06
16595;BME280;8410;52.532;13.336;2023-05-13T09:55:08;101659.94;;;21.33;34.47
16595;BME280;8410;52.532;13.336;2023-05-13T09:57:38;101640.47;;;21.95;34.68
16595;BME280;8410;52.532;13.336;2023-05-13T10:00:06;101663.34;;;21.87;32.46
16595;BME280;8410;52.532;13.336;2023-05-13T10:02:50;101659.66;;;21.52;33.23
16595;BME280;8410;52.532;13.336;2023-05-13T10:05:18;101641.88;;;22.11;32.47
16595;BME280;8410;52.532;13.336;2023-05-13T10:07:46;101643.88;;;21.97;32.57
16595;BME280;8410;52.532;13.336;2023-05-13T10:10:13;101645.53;;;22.44;32.13
16595;BME280;8410;52.532;13.336;2023-05-13T10:12:42;101649.06;;;22.43;32.44
16595;BME280;8410;52.532;13.336;2023-05-13T10:15:10;101642.56;;;22.97;31.27
16595;BME280;8410;52.532;13.336;2023-05-13T10:17:38;101632.88;;;22.24;31.53
16595;BME280;8410;52.532;13.336;2023-05-13T10:20:07;101638.03;;;22.28;32.01
16595;BME280;8410;52.532;13.336;2023-05-13T10:22:34;101631.47;;;22.84;31.55
16595;BME280;8410;52.532;13.336;2023-05-13T10:25:03;101644.34;;;22.95;32.34
16595;BME280;8410;52.532;13.336;2023-05-13T10:27:32;101636.03;;;21.97;31.91
16595;BME280;8410;52.532;13.336;2023-05-13T10:30:02;101648.03;;;21.65;31.83
16595;BME280;8410;52.532;13.336;2023-05-13T10:32:36;101633.25;;;22.46;30.90
16595;BME280;8410;52.532;13.336;2023-05-13T10:35:09;101641.91;;;21.65;31.37
16595;BME280;8410;52.532;13.336;2023-05-13T10:37:55;101628.06;;;22.81;31.53
16595;BME280;8410;52.532;13.336;2023-05-13T10:41:03;101629.09;;;22.36;31.42
16595;BME280;8410;52.532;13.336;2023-05-13T10:43:34;101637.56;;;22.49;31.81
16595;BME280;8410;52.532;13.336;2023-05-13T10:46:05;101624.38;;;22.88;31.00
16595;BME280;8410;52.532;13.336;2023-05-13T10:48:40;101644.19;;;22.65;31.08
16595;BME280;8410;52.532;13.336;2023-05-13T10:51:12;101633.41;;;22.76;30.96
16595;BME280;8410;52.532;13.336;2023-05-13T10:53:43;101630.94;;;22.70;31.33
16595;BME280;8410;52.532;13.336;2023-05-13T10:56:12;101644.50;;;22.89;30.64
16595;BME280;8410;52.532;13.336;2023-05-13T10:58:40;101626.03;;;21.72;31.65
16595;BME280;8410;52.532;13.336;2023-05-13T11:01:14;101630.97;;;22.68;31.75
16595;BME280;8410;52.532;13.336;2023-05-13T11:03:50;101635.56;;;22.21;32.01
16595;BME280;8410;52.532;13.336;2023-05-13T11:06:19;101640.47;;;21.95;31.65
16595;BME280;8410;52.532;13.336;2023-05-13T11:08:49;101633.31;;;22.03;31.67
16595;BME280;8410;52.532;13.336;2023-05-13T11:11:26;101629.84;;;21.56;31.68
16595;BME280;8410;52.532;13.336;2023-05-13T11:14:04;101630.16;;;21.86;31.08
16595;BME280;8410;52.532;13.336;2023-05-13T11:16:35;101625.53;;;21.97;30.82
16595;BME280;8410;52.532;13.336;2023-05-13T11:19:08;101616.72;;;22.02;31.06
16595;BME280;8410;52.532;13.336;2023-05-13T11:21:47;101622.72;;;22.48;30.71
16595;BME280;8410;52.532;13.336;2023-05-13T11:24:17;101631.06;;;23.01;30.79
16595;BME280;8410;52.532;13.336;2023-05-13T11:26:48;101639.47;;;22.00;31.19
16595;BME280;8410;52.532;13.336;2023-05-13T11:29:27;101618.09;;;22.20;31.60
16595;BME280;8410;52.532;13.336;2023-05-13T11:31:56;101625.84;;;22.27;30.84
16595;BME280;8410;52.532;13.336;2023-05-13T11:34:26;101622.66;;;22.09;31.16
16595;BME280;8410;52.532;13.336;2023-05-13T11:36:56;101618.84;;;22.64;30.67
16595;BME280;8410;52.532;13.336;2023-05-13T11:39:32;101605.81;;;22.21;30.15
16595;BME280;8410;52.532;13.336;2023-05-13T11:42:01;101591.03;;;22.18;30.57
16595;BME280;8410;52.532;13.336;2023-05-13T11:44:33;101609.53;;;22.11;30.60
16595;BME280;8410;52.532;13.336;2023-05-13T11:47:03;101611.47;;;22.01;30.89
16595;BME280;8410;52.532;13.336;2023-05-13T11:49:35;101607.88;;;22.05;31.26
16595;BME280;8410;52.532;13.336;2023-05-13T11:52:05;101607.25;;;22.36;31.64
16595;BME280;8410;52.532;13.336;2023-05-13T11:54:44;101612.91;;;22.92;31.22
16595;BME280;8410;52.532;13.336;2023-05-13T11:57:19;101610.56;;;22.44;31.09
16595;BME280;8410;52.532;13.336;2023-05-13T11:59:52;101616.72;;;22.43;30.68
16595;BME280;8410;52.532;13.336;2023-05-13T12:02:22;101612.97;;;22.53;31.10
16595;BME280;8410;52.532;13.336;2023-05-13T12:04:50;101584.22;;;23.51;30.33
16595;BME280;8410;52.532;13.336;2023-05-13T12:07:20;101591.75;;;22.98;30.48
16595;BME280;8410;52.532;13.336;2023-05-13T12:09:48;101606.75;;;23.27;31.21
16595;BME280;8410;52.532;13.336;2023-05-13T12:12:15;101605.88;;;23.28;30.56
16595;BME280;8410;52.532;13.336;2023-05-13T12:14:43;101595.56;;;22.85;30.26
16595;BME280;8410;52.532;13.336;2023-05-13T12:17:12;101581.19;;;23.01;30.85
16595;BME280;8410;52.532;13.336;2023-05-13T12:20:03;101601.66;;;22.87;30.42
16595;BME280;8410;52.532;13.336;2023-05-13T12:22:32;101604.91;;;22.98;30.18
16595;BME280;8410;52.532;13.336;2023-05-13T12:24:59;101599.13;;;22.48;30.55
16595;BME280;8410;52.532;13.336;2023-05-13T12:27:31;101604.28;;;22.51;30.75
16595;BME280;8410;52.532;13.336;2023-05-13T12:29:58;101602.44;;;22.90;30.38
16595;BME280;8410;52.532;13.336;2023-05-13T12:32:26;101608.47;;;22.94;30.16
16595;BME280;8410;52.532;13.336;2023-05-13T12:34:55;101603.63;;;22.77;29.67
16595;BME280;8410;52.532;13.336;2023-05-13T12:37:23;101608.91;;;22.40;30.38
16595;BME280;8410;52.532;13.336;2023-05-13T12:40:08;101607.13;;;23.15;30.53
16595;BME280;8410;52.532;13.336;2023-05-13T12:42:35;101588.91;;;23.07;30.30
16595;BME280;8410;52.532;13.336;2023-05-13T12:45:04;101616.38;;;22.93;30.54
16595;BME280;8410;52.532;13.336;2023-05-13T12:47:46;101608.44;;;22.97;30.77
16595;BME280;8410;52.532;13.336;2023-05-13T12:50:15;101595.66;;;23.18;30.61
16595;BME280;8410;52.532;13.336;2023-05-13T12:52:43;101584.50;;;23.09;31.17
16595;BME280;8410;52.532;13.336;2023-05-13T12:55:11;101569.91;;;23.62;30.35
16595;BME280;8410;52.532;13.336;2023-05-13T12:57:39;101578.34;;;23.10;30.77
16595;BME280;8410;52.532;13.336;2023-05-13T13:00:09;101577.06;;;23.56;30.81